Language: 


Des rapports , des résumés tant et plus, au choix de chacun....


Données Historiques de Météogheer
Journalier Rapport pour Février 7, 2017 Unitée:  Les deux    Impériale   Métrique
Suivant Jour »
Journalier Hebdomadaire Mensuel Annuel Sur mesure
  Max: Min: Moyenne:
Température: 45.3 °F /  7.4 °C 40.3 °F /  4.6 °C 42.8 °F /  6 °C
Point de rosée: 45 °F /  7.2 °C 39.6 °F /  4.2 °C 42.1 °F /  5.6 °C
Humidité: 98% 93% 97%
Vent: 10.3mph /  16.6km/h - 3mph /  4.9km/h
Rafales: 14.5mph /  23.3km/h - -
Vent- - SSW
Pression: 30 in /  1016.8 hPa 29.9 in /  1012.1 hPa -
Pluie: 0.11 in /  2.8 mm    
Historical Graphs
 
 
Données tabulaires pour Février 7, 2017
Heure Température Point de rosée Pression Vent Vent Rafales Humidité Pluie Taux (Horaire) Conditions
00:00 42.4 °F /  5.8 °C 40.5 °F /  4.7 °C 30in /  1015.1hPa SSE 3.8mph /  6.1km/h 6.3mph /  10.1km/h 93% 0in /  0.0mm
00:05 42.4 °F /  5.8 °C 40.5 °F /  4.7 °C 30in /  1015.1hPa SSE 2.7mph /  4.3km/h 4.7mph /  7.6km/h 93% 0in /  0.0mm
00:10 42.4 °F /  5.8 °C 40.5 °F /  4.7 °C 30in /  1015.1hPa SSE 1.6mph /  2.6km/h 3.8mph /  6.1km/h 93% 0in /  0.0mm
00:15 42.4 °F /  5.8 °C 40.5 °F /  4.7 °C 30in /  1015.1hPa SE 2.5mph /  4.0km/h 3.6mph /  5.8km/h 93% 0in /  0.0mm
00:20 42.4 °F /  5.8 °C 40.5 °F /  4.7 °C 30in /  1015.1hPa SE 2mph /  3.2km/h 4.7mph /  7.6km/h 93% 0in /  0.0mm
00:25 42.4 °F /  5.8 °C 40.5 °F /  4.7 °C 30in /  1015.1hPa SSE 2.5mph /  4.0km/h 4.7mph /  7.6km/h 93% 0in /  0.0mm
00:30 42.4 °F /  5.8 °C 40.5 °F /  4.7 °C 30in /  1015.1hPa SSE 3.1mph /  5.0km/h 3.8mph /  6.1km/h 93% 0in /  0.0mm
00:35 42.3 °F /  5.7 °C 40.5 °F /  4.7 °C 30in /  1015.1hPa Calm   3.4mph /  5.5km/h 93% 0in /  0.0mm
00:40 42.3 °F /  5.7 °C 40.5 °F /  4.7 °C 30in /  1015.1hPa South 2.7mph /  4.3km/h 3.1mph /  5.0km/h 93% 0in /  0.0mm
00:45 42.3 °F /  5.7 °C 40.5 °F /  4.7 °C 30in /  1015.1hPa Calm   2.7mph /  4.3km/h 93% 0in /  0.0mm
00:50 42.3 °F /  5.7 °C 40.5 °F /  4.7 °C 30in /  1015.1hPa Calm   2.9mph /  4.7km/h 93% 0in /  0.0mm
00:55 42.3 °F /  5.7 °C 40.5 °F /  4.7 °C 30in /  1015.1hPa Calm   2.9mph /  4.7km/h 93% 0in /  0.0mm
01:00 42.3 °F /  5.7 °C 40.5 °F /  4.7 °C 30in /  1015.1hPa ESE 1.3mph /  2.1km/h 2.7mph /  4.3km/h 93% 0in /  0.0mm
01:05 42.1 °F /  5.6 °C 40.3 °F /  4.6 °C 30in /  1015.1hPa Calm   2.7mph /  4.3km/h 93% 0in /  0.0mm
01:10 42.1 °F /  5.6 °C 40.3 °F /  4.6 °C 29.9in /  1014.1hPa SE 2.5mph /  4.0km/h 3.6mph /  5.8km/h 93% 0in /  0.0mm
01:15 42.1 °F /  5.6 °C 40.3 °F /  4.6 °C 29.9in /  1014.1hPa SE 0.9mph /  1.4km/h 4mph /  6.4km/h 93% 0in /  0.0mm
01:20 42.1 °F /  5.6 °C 40.3 °F /  4.6 °C 29.9in /  1014.1hPa SE 1.3mph /  2.1km/h 4mph /  6.4km/h 93% 0in /  0.0mm
01:25 42.1 °F /  5.6 °C 40.3 °F /  4.6 °C 30in /  1015.1hPa ESE 1.3mph /  2.1km/h 3.6mph /  5.8km/h 93% 0in /  0.0mm
01:30 42.1 °F /  5.6 °C 40.3 °F /  4.6 °C 30in /  1015.1hPa SE 3.8mph /  6.1km/h 4.9mph /  7.9km/h 93% 0in /  0.0mm
01:35 42.1 °F /  5.6 °C 40.3 °F /  4.6 °C 30in /  1015.1hPa ESE 3.4mph /  5.5km/h 4.9mph /  7.9km/h 93% 0in /  0.0mm
01:40 42.1 °F /  5.6 °C 40.3 °F /  4.6 °C 30in /  1015.1hPa SE 2.9mph /  4.7km/h 6.5mph /  10.5km/h 93% 0in /  0.0mm
01:45 42.1 °F /  5.6 °C 40.3 °F /  4.6 °C 30in /  1015.1hPa SE 5.6mph /  9.0km/h 6.5mph /  10.5km/h 93% 0in /  0.0mm
01:50 42.1 °F /  5.6 °C 40.3 °F /  4.6 °C 30in /  1015.1hPa SE 4mph /  6.4km/h 5.6mph /  9.0km/h 93% 0in /  0.0mm
01:55 42.1 °F /  5.6 °C 40.3 °F /  4.6 °C 30in /  1015.1hPa ESE 3.1mph /  5.0km/h 5.8mph /  9.3km/h 93% 0in /  0.0mm
02:02 42.1 °F /  5.6 °C 40.3 °F /  4.6 °C 30in /  1015.1hPa ESE 3.8mph /  6.1km/h 5.6mph /  9.0km/h 93% 0in /  0.0mm
02:07 42.3 °F /  5.7 °C 40.5 °F /  4.7 °C 30in /  1016.1hPa SE 3.1mph /  5.0km/h 5.6mph /  9.0km/h 93% 0in /  0.0mm
02:12 42.3 °F /  5.7 °C 40.5 °F /  4.7 °C 30in /  1016.1hPa SSE 3.1mph /  5.0km/h 5.6mph /  9.0km/h 93% 0in /  0.0mm
02:17 42.3 °F /  5.7 °C 40.5 °F /  4.7 °C 30in /  1016.1hPa SSE 2.9mph /  4.7km/h 4.9mph /  7.9km/h 93% 0in /  0.0mm
02:22 42.3 °F /  5.7 °C 40.5 °F /  4.7 °C 30in /  1015.1hPa SSW 2mph /  3.2km/h 4mph /  6.4km/h 93% 0in /  0.0mm
02:27 42.3 °F /  5.7 °C 40.5 °F /  4.7 °C 30in /  1015.1hPa SSW 0.9mph /  1.4km/h 4mph /  6.4km/h 93% 0in /  0.0mm
02:32 42.1 °F /  5.6 °C 40.3 °F /  4.6 °C 30in /  1015.1hPa Calm   3.4mph /  5.5km/h 93% 0in /  0.0mm
02:37 41.9 °F /  5.5 °C 40.3 °F /  4.6 °C 30in /  1015.1hPa Calm   2.7mph /  4.3km/h 94% 0in /  0.0mm
02:42 41.9 °F /  5.5 °C 40.3 °F /  4.6 °C 30in /  1015.1hPa Calm   4.7mph /  7.6km/h 94% 0in /  0.0mm
02:47 41.9 °F /  5.5 °C 40.3 °F /  4.6 °C 30in /  1015.1hPa Calm   4.7mph /  7.6km/h 94% 0in /  0.0mm
02:52 41.9 °F /  5.5 °C 40.3 °F /  4.6 °C 30in /  1015.1hPa Calm   3.4mph /  5.5km/h 94% 0in /  0.0mm
02:57 41.7 °F /  5.4 °C 40.1 °F /  4.5 °C 30in /  1015.1hPa SSE 1.3mph /  2.1km/h 3.6mph /  5.8km/h 94% 0in /  0.0mm
03:02 41.7 °F /  5.4 °C 40.1 °F /  4.5 °C 30in /  1015.1hPa South 2.2mph /  3.5km/h 3.6mph /  5.8km/h 94% 0.01in /  0.3mm
03:07 41.5 °F /  5.3 °C 40.3 °F /  4.6 °C 30in /  1015.1hPa Calm   2.2mph /  3.5km/h 95% 0.01in /  0.3mm
03:12 41.5 °F /  5.3 °C 40.3 °F /  4.6 °C 30in /  1015.1hPa Calm   2.9mph /  4.7km/h 95% 0.01in /  0.3mm
03:17 41.5 °F /  5.3 °C 40.3 °F /  4.6 °C 30in /  1015.1hPa SSE 1.1mph /  1.8km/h 2.9mph /  4.7km/h 95% 0.01in /  0.3mm
03:22 41.4 °F /  5.2 °C 39.9 °F /  4.4 °C 29.9in /  1014.1hPa Calm   3.1mph /  5.0km/h 95% 0.01in /  0.3mm
03:27 41.4 °F /  5.2 °C 39.9 °F /  4.4 °C 29.9in /  1014.1hPa Calm   3.1mph /  5.0km/h 95% 0.01in /  0.3mm
03:32 41.4 °F /  5.2 °C 39.9 °F /  4.4 °C 29.9in /  1014.1hPa Calm   2.5mph /  4.0km/h 95% 0.01in /  0.3mm
03:37 41.4 °F /  5.2 °C 40.3 °F /  4.6 °C 29.9in /  1014.1hPa Calm   2.7mph /  4.3km/h 96% 0.01in /  0.3mm
03:42 41.4 °F /  5.2 °C 40.3 °F /  4.6 °C 29.9in /  1014.1hPa SSE 0.9mph /  1.4km/h 3.8mph /  6.1km/h 96% 0.03in /  0.8mm
03:47 41.2 °F /  5.1 °C 40.1 °F /  4.5 °C 29.9in /  1014.1hPa SSE 2.9mph /  4.7km/h 3.8mph /  6.1km/h 96% 0.03in /  0.8mm
03:52 41.2 °F /  5.1 °C 40.1 °F /  4.5 °C 29.9in /  1014.1hPa SSE 2mph /  3.2km/h 4.9mph /  7.9km/h 96% 0.03in /  0.8mm
03:57 41.2 °F /  5.1 °C 40.1 °F /  4.5 °C 29.9in /  1014.1hPa SSE 5.4mph /  8.7km/h 5.4mph /  8.7km/h 96% 0.03in /  0.8mm
04:02 41.2 °F /  5.1 °C 40.1 °F /  4.5 °C 29.9in /  1014.1hPa SSE 1.1mph /  1.8km/h 5.4mph /  8.7km/h 96% 0.01in /  0.3mm
04:07 41.2 °F /  5.1 °C 40.1 °F /  4.5 °C 29.9in /  1014.1hPa SE 4.7mph /  7.6km/h 6.5mph /  10.5km/h 96% 0.01in /  0.3mm
04:12 41.2 °F /  5.1 °C 40.5 °F /  4.7 °C 29.9in /  1014.1hPa South 4mph /  6.4km/h 8.9mph /  14.3km/h 97% 0.02in /  0.5mm
04:17 41.2 °F /  5.1 °C 40.5 °F /  4.7 °C 29.9in /  1014.1hPa SSW 4.5mph /  7.2km/h 8.9mph /  14.3km/h 97% 0.02in /  0.5mm
04:22 41.2 °F /  5.1 °C 40.5 °F /  4.7 °C 29.9in /  1014.1hPa SSE 6.7mph /  10.8km/h 8.1mph /  13.0km/h 97% 0.02in /  0.5mm
04:27 41.2 °F /  5.1 °C 40.5 °F /  4.7 °C 29.9in /  1014.1hPa SSE 4.9mph /  7.9km/h 7.8mph /  12.6km/h 97% 0.02in /  0.5mm
04:32 41.2 °F /  5.1 °C 40.5 °F /  4.7 °C 29.9in /  1014.1hPa Calm   7.8mph /  12.6km/h 97% 0.02in /  0.5mm
04:37 41.2 °F /  5.1 °C 40.5 °F /  4.7 °C 29.9in /  1014.1hPa SSE 4mph /  6.4km/h 10.5mph /  16.9km/h 97% 0.03in /  0.8mm
04:42 41.2 °F /  5.1 °C 40.5 °F /  4.7 °C 29.9in /  1014.1hPa SSE 4.9mph /  7.9km/h 10.5mph /  16.9km/h 97% 0.02in /  0.5mm
04:47 41.2 °F /  5.1 °C 40.5 °F /  4.7 °C 29.9in /  1014.1hPa South 5.6mph /  9.0km/h 7.4mph /  11.9km/h 97% 0.02in /  0.5mm
04:52 41 °F /  5.0 °C 40.3 °F /  4.6 °C 29.9in /  1014.1hPa SSE 4.9mph /  7.9km/h 8.1mph /  13.0km/h 97% 0.02in /  0.5mm
04:57 40.8 °F /  4.9 °C 39.9 °F /  4.4 °C 29.9in /  1014.1hPa SE 4.9mph /  7.9km/h 8.1mph /  13.0km/h 97% 0.03in /  0.8mm
05:02 40.6 °F /  4.8 °C 39.9 °F /  4.4 °C 29.9in /  1014.1hPa SSE 5.8mph /  9.3km/h 7.6mph /  12.2km/h 97% 0.03in /  0.8mm
05:07 40.5 °F /  4.7 °C 39.7 °F /  4.3 °C 29.9in /  1013.1hPa SSE 4mph /  6.4km/h 7.6mph /  12.2km/h 97% 0.03in /  0.8mm
05:12 40.5 °F /  4.7 °C 39.7 °F /  4.3 °C 29.9in /  1013.1hPa SSE 3.4mph /  5.5km/h 7.8mph /  12.6km/h 97% 0.02in /  0.5mm
05:17 40.5 °F /  4.7 °C 39.7 °F /  4.3 °C 29.9in /  1013.1hPa SSW 2.7mph /  4.3km/h 8.5mph /  13.7km/h 97% 0.02in /  0.5mm
05:22 40.5 °F /  4.7 °C 39.7 °F /  4.3 °C 29.9in /  1014.1hPa SSE 3.6mph /  5.8km/h 8.5mph /  13.7km/h 97% 0.02in /  0.5mm
05:27 40.5 °F /  4.7 °C 39.7 °F /  4.3 °C 29.9in /  1014.1hPa South 2.7mph /  4.3km/h 8.1mph /  13.0km/h 97% 0.03in /  0.8mm
05:32 40.5 °F /  4.7 °C 39.7 °F /  4.3 °C 29.9in /  1014.1hPa SSE 6.3mph /  10.1km/h 8.7mph /  14.0km/h 97% 0.03in /  0.8mm
05:37 40.5 °F /  4.7 °C 39.7 °F /  4.3 °C 29.9in /  1014.1hPa SSE 4.5mph /  7.2km/h 8.7mph /  14.0km/h 97% 0.02in /  0.5mm
05:42 40.5 °F /  4.7 °C 39.7 °F /  4.3 °C 29.9in /  1014.1hPa SSE 3.1mph /  5.0km/h 10.5mph /  16.9km/h 97% 0.02in /  0.5mm
05:47 40.3 °F /  4.6 °C 39.6 °F /  4.2 °C 29.9in /  1014.1hPa SSE 3.1mph /  5.0km/h 10.5mph /  16.9km/h 97% 0.02in /  0.5mm
05:52 40.3 °F /  4.6 °C 39.6 °F /  4.2 °C 29.9in /  1013.1hPa South 6.3mph /  10.1km/h 10.7mph /  17.2km/h 97% 0.02in /  0.5mm
05:57 40.3 °F /  4.6 °C 39.6 °F /  4.2 °C 29.9in /  1013.1hPa SSE 6.3mph /  10.1km/h 10.7mph /  17.2km/h 97% 0.01in /  0.3mm
06:02 40.5 °F /  4.7 °C 39.9 °F /  4.4 °C 29.9in /  1013.1hPa South 7.6mph /  12.2km/h 11.2mph /  18.0km/h 98% 0.01in /  0.3mm
06:07 40.5 °F /  4.7 °C 39.9 °F /  4.4 °C 29.9in /  1013.1hPa SSE 3.8mph /  6.1km/h 12.3mph /  19.8km/h 98% 0.01in /  0.3mm
06:13 40.5 °F /  4.7 °C 39.7 °F /  4.3 °C 29.9in /  1013.1hPa SSE 5.4mph /  8.7km/h 14.5mph /  23.3km/h 97% 0.01in /  0.3mm
06:18 40.5 °F /  4.7 °C 39.7 °F /  4.3 °C 29.9in /  1013.1hPa South 3.1mph /  5.0km/h 14.5mph /  23.3km/h 97% 0.01in /  0.3mm
06:23 40.5 °F /  4.7 °C 39.7 °F /  4.3 °C 29.9in /  1013.1hPa SE 7.4mph /  11.9km/h 11mph /  17.7km/h 97% 0in /  0.0mm
06:28 40.5 °F /  4.7 °C 39.7 °F /  4.3 °C 29.9in /  1013.1hPa SSE 5.6mph /  9.0km/h 12.3mph /  19.8km/h 97% 0in /  0.0mm
06:33 40.5 °F /  4.7 °C 39.7 °F /  4.3 °C 29.9in /  1013.1hPa SSE 5.6mph /  9.0km/h 12.3mph /  19.8km/h 97% 0in /  0.0mm
06:38 40.5 °F /  4.7 °C 39.7 °F /  4.3 °C 29.9in /  1013.1hPa South 3.6mph /  5.8km/h 10.5mph /  16.9km/h 97% 0in /  0.0mm
06:43 40.5 °F /  4.7 °C 39.7 °F /  4.3 °C 29.9in /  1013.1hPa SSE 6.5mph /  10.5km/h 10.1mph /  16.3km/h 97% 0in /  0.0mm
06:48 40.5 °F /  4.7 °C 39.7 °F /  4.3 °C 29.9in /  1013.1hPa SE 6.5mph /  10.5km/h 12.8mph /  20.6km/h 97% 0in /  0.0mm
06:53 40.5 °F /  4.7 °C 39.7 °F /  4.3 °C 29.9in /  1013.1hPa SE 10.3mph /  16.6km/h 12.8mph /  20.6km/h 97% 0in /  0.0mm
06:58 40.5 °F /  4.7 °C 39.7 °F /  4.3 °C 29.9in /  1013.1hPa SE 7.8mph /  12.6km/h 12.8mph /  20.6km/h 97% 0in /  0.0mm
07:03 40.5 °F /  4.7 °C 39.7 °F /  4.3 °C 29.9in /  1013.1hPa SSE 6.3mph /  10.1km/h 12.8mph /  20.6km/h 97% 0in /  0.0mm
07:08 40.5 °F /  4.7 °C 39.7 °F /  4.3 °C 29.9in /  1012.1hPa SE 6.3mph /  10.1km/h 10.7mph /  17.2km/h 97% 0in /  0.0mm
07:12 40.5 °F /  4.7 °C 39.7 °F /  4.3 °C 29.9in /  1012.1hPa ESE 8.1mph /  13.0km/h 11mph /  17.7km/h 97% 0in /  0.0mm
07:18 40.5 °F /  4.7 °C 39.7 °F /  4.3 °C 29.9in /  1012.1hPa SSE 4mph /  6.4km/h 12.1mph /  19.5km/h 97% 0in /  0.0mm
07:22 40.6 °F /  4.8 °C 39.9 °F /  4.4 °C 29.9in /  1013.1hPa SE 4.3mph /  6.9km/h 12.1mph /  19.5km/h 97% 0in /  0.0mm
07:27 40.6 °F /  4.8 °C 39.9 °F /  4.4 °C 29.9in /  1013.1hPa South 5.8mph /  9.3km/h 10.3mph /  16.6km/h 97% 0in /  0.0mm
07:32 40.6 °F /  4.8 °C 39.9 °F /  4.4 °C 29.9in /  1013.1hPa SSE 5.4mph /  8.7km/h 8.7mph /  14.0km/h 97% 0in /  0.0mm
07:37 40.6 °F /  4.8 °C 39.9 °F /  4.4 °C 29.9in /  1013.1hPa SSE 6.5mph /  10.5km/h 9.6mph /  15.4km/h 97% 0in /  0.0mm
07:42 40.8 °F /  4.9 °C 39.9 °F /  4.4 °C 29.9in /  1013.1hPa SSE 3.4mph /  5.5km/h 9.6mph /  15.4km/h 97% 0in /  0.0mm
07:47 40.8 °F /  4.9 °C 39.9 °F /  4.4 °C 29.9in /  1013.1hPa SSE 6.7mph /  10.8km/h 8.7mph /  14.0km/h 97% 0in /  0.0mm
07:52 40.8 °F /  4.9 °C 39.9 °F /  4.4 °C 29.9in /  1013.1hPa SSE 7.8mph /  12.6km/h 8.5mph /  13.7km/h 97% 0in /  0.0mm
07:57 40.8 °F /  4.9 °C 39.9 °F /  4.4 °C 29.9in /  1013.1hPa SSE 6.5mph /  10.5km/h 10.5mph /  16.9km/h 97% 0in /  0.0mm
08:02 40.8 °F /  4.9 °C 39.9 °F /  4.4 °C 29.9in /  1013.1hPa SE 8.7mph /  14.0km/h 10.5mph /  16.9km/h 97% 0in /  0.0mm
08:07 40.8 °F /  4.9 °C 39.9 °F /  4.4 °C 29.9in /  1012.1hPa SSE 3.6mph /  5.8km/h 10.5mph /  16.9km/h 97% 0in /  0.0mm
08:12 41 °F /  5.0 °C 39.9 °F /  4.4 °C 29.9in /  1012.1hPa SSE 4.9mph /  7.9km/h 9.8mph /  15.8km/h 96% 0in /  0.0mm
08:17 41 °F /  5.0 °C 39.9 °F /  4.4 °C 29.9in /  1012.1hPa SSE 4.7mph /  7.6km/h 10.7mph /  17.2km/h 96% 0in /  0.0mm
08:22 41 °F /  5.0 °C 39.9 °F /  4.4 °C 29.9in /  1013.1hPa SSE 5.4mph /  8.7km/h 10.7mph /  17.2km/h 96% 0in /  0.0mm
08:27 41 °F /  5.0 °C 39.9 °F /  4.4 °C 29.9in /  1013.1hPa SSW 4.9mph /  7.9km/h 9.8mph /  15.8km/h 96% 0in /  0.0mm
08:32 41 °F /  5.0 °C 39.9 °F /  4.4 °C 29.9in /  1013.1hPa SSE 4.9mph /  7.9km/h 7.8mph /  12.6km/h 96% 0in /  0.0mm
08:37 41 °F /  5.0 °C 39.9 °F /  4.4 °C 29.9in /  1013.1hPa SSE 7.2mph /  11.6km/h 8.5mph /  13.7km/h 96% 0in /  0.0mm
08:42 41 °F /  5.0 °C 39.9 °F /  4.4 °C 29.9in /  1013.1hPa South 6mph /  9.7km/h 10.3mph /  16.6km/h 96% 0in /  0.0mm
08:47 41 °F /  5.0 °C 39.9 °F /  4.4 °C 29.9in /  1013.1hPa SSE 4.9mph /  7.9km/h 10.3mph /  16.6km/h 96% 0in /  0.0mm
08:52 41 °F /  5.0 °C 39.9 °F /  4.4 °C 29.9in /  1013.1hPa SSE 3.8mph /  6.1km/h 10.1mph /  16.3km/h 96% 0in /  0.0mm
08:57 41 °F /  5.0 °C 40.3 °F /  4.6 °C 29.9in /  1013.1hPa SSE 5.8mph /  9.3km/h 10.5mph /  16.9km/h 97% 0in /  0.0mm
09:02 40.8 °F /  4.9 °C 39.9 °F /  4.4 °C 29.9in /  1013.1hPa South 4.9mph /  7.9km/h 10.5mph /  16.9km/h 97% 0in /  0.0mm
09:07 41 °F /  5.0 °C 40.3 °F /  4.6 °C 29.9in /  1013.1hPa SE 5.6mph /  9.0km/h 10.5mph /  16.9km/h 97% 0in /  0.0mm
09:12 41 °F /  5.0 °C 40.3 °F /  4.6 °C 29.9in /  1013.1hPa South 6.5mph /  10.5km/h 11mph /  17.7km/h 97% 0in /  0.0mm
09:17 41 °F /  5.0 °C 40.3 °F /  4.6 °C 29.9in /  1013.1hPa SSE 10.1mph /  16.3km/h 12.3mph /  19.8km/h 97% 0in /  0.0mm
09:22 41 °F /  5.0 °C 40.3 °F /  4.6 °C 29.9in /  1012.1hPa South 6.5mph /  10.5km/h 12.3mph /  19.8km/h 97% 0in /  0.0mm
09:27 41 °F /  5.0 °C 40.3 °F /  4.6 °C 29.9in /  1012.1hPa South 9.8mph /  15.8km/h 11mph /  17.7km/h 97% 0in /  0.0mm
09:32 41 °F /  5.0 °C 40.3 °F /  4.6 °C 29.9in /  1012.1hPa SE 6.5mph /  10.5km/h 11mph /  17.7km/h 97% 0in /  0.0mm
09:37 41 °F /  5.0 °C 40.3 °F /  4.6 °C 29.9in /  1012.1hPa SSE 7.4mph /  11.9km/h 12.3mph /  19.8km/h 97% 0in /  0.0mm
09:42 41 °F /  5.0 °C 40.3 °F /  4.6 °C 29.9in /  1012.1hPa South 7.8mph /  12.6km/h 12.3mph /  19.8km/h 97% 0in /  0.0mm
09:47 41.2 °F /  5.1 °C 40.5 °F /  4.7 °C 29.9in /  1012.1hPa SSE 8.5mph /  13.7km/h 9.8mph /  15.8km/h 97% 0in /  0.0mm
09:52 41.2 °F /  5.1 °C 40.5 °F /  4.7 °C 29.9in /  1013.1hPa SSE 6.3mph /  10.1km/h 10.7mph /  17.2km/h 97% 0in /  0.0mm
09:57 41.2 °F /  5.1 °C 40.5 °F /  4.7 °C 29.9in /  1013.1hPa South 3.1mph /  5.0km/h 10.7mph /  17.2km/h 97% 0in /  0.0mm
10:02 41.2 °F /  5.1 °C 40.5 °F /  4.7 °C 29.9in /  1013.1hPa South 3.6mph /  5.8km/h 10.7mph /  17.2km/h 97% 0in /  0.0mm
10:07 41.2 °F /  5.1 °C 40.5 °F /  4.7 °C 29.9in /  1013.1hPa SE 4mph /  6.4km/h 8.1mph /  13.0km/h 97% 0in /  0.0mm
10:12 41.2 °F /  5.1 °C 40.5 °F /  4.7 °C 29.9in /  1013.1hPa SSE 3.8mph /  6.1km/h 9.8mph /  15.8km/h 97% 0in /  0.0mm
10:17 41.2 °F /  5.1 °C 40.5 °F /  4.7 °C 29.9in /  1013.1hPa SE 5.4mph /  8.7km/h 10.3mph /  16.6km/h 97% 0in /  0.0mm
10:23 41.4 °F /  5.2 °C 40.6 °F /  4.8 °C 29.9in /  1012.1hPa South 4.9mph /  7.9km/h 10.3mph /  16.6km/h 97% 0in /  0.0mm
10:28 41.4 °F /  5.2 °C 40.6 °F /  4.8 °C 29.9in /  1012.1hPa SSE 5.6mph /  9.0km/h 10.3mph /  16.6km/h 97% 0in /  0.0mm
10:33 41.4 °F /  5.2 °C 40.8 °F /  4.9 °C 29.9in /  1012.1hPa South 4.3mph /  6.9km/h 10.3mph /  16.6km/h 98% 0in /  0.0mm
10:38 41.4 °F /  5.2 °C 40.8 °F /  4.9 °C 29.9in /  1012.1hPa SSE 5.4mph /  8.7km/h 10.7mph /  17.2km/h 98% 0in /  0.0mm
10:43 41.4 °F /  5.2 °C 40.8 °F /  4.9 °C 29.9in /  1012.1hPa SSE 3.6mph /  5.8km/h 10.7mph /  17.2km/h 98% 0in /  0.0mm
10:48 41.5 °F /  5.3 °C 41 °F /  5.0 °C 29.9in /  1012.1hPa SSE 3.6mph /  5.8km/h 8.1mph /  13.0km/h 98% 0in /  0.0mm
10:53 41.5 °F /  5.3 °C 41 °F /  5.0 °C 29.9in /  1012.1hPa SSE 4.7mph /  7.6km/h 7.4mph /  11.9km/h 98% 0.01in /  0.3mm
10:58 41.5 °F /  5.3 °C 41 °F /  5.0 °C 29.9in /  1012.1hPa SE 3.4mph /  5.5km/h 9.6mph /  15.4km/h 98% 0.01in /  0.3mm
11:03 41.5 °F /  5.3 °C 41 °F /  5.0 °C 29.9in /  1012.1hPa SSE 4mph /  6.4km/h 9.6mph /  15.4km/h 98% 0.01in /  0.3mm
11:08 41.5 °F /  5.3 °C 41 °F /  5.0 °C 29.9in /  1012.1hPa SSE 3.8mph /  6.1km/h 7.2mph /  11.6km/h 98% 0.01in /  0.3mm
11:10 41.7 °F /  5.4 °C 41.2 °F /  5.1 °C 29.9in /  1012.1hPa SSE 2.7mph /  4.3km/h 7.2mph /  11.6km/h 98% 0.01in /  0.3mm
11:15 41.7 °F /  5.4 °C 41.2 °F /  5.1 °C 29.9in /  1012.1hPa SE 2.7mph /  4.3km/h 8.1mph /  13.0km/h 98% 0.01in /  0.3mm
11:20 41.9 °F /  5.5 °C 41.4 °F /  5.2 °C 29.9in /  1012.1hPa SSE 3.1mph /  5.0km/h 8.1mph /  13.0km/h 98% 0.01in /  0.3mm
11:25 41.9 °F /  5.5 °C 41.4 °F /  5.2 °C 29.9in /  1013.1hPa Calm   9.4mph /  15.1km/h 98% 0.01in /  0.3mm
11:30 41.9 °F /  5.5 °C 41.4 °F /  5.2 °C 29.9in /  1013.1hPa SSE 7.2mph /  11.6km/h 9.4mph /  15.1km/h 98% 0.01in /  0.3mm
11:35 42.1 °F /  5.6 °C 41.5 °F /  5.3 °C 29.9in /  1013.1hPa South 4.3mph /  6.9km/h 8.7mph /  14.0km/h 98% 0.01in /  0.3mm
11:40 42.1 °F /  5.6 °C 41.5 °F /  5.3 °C 29.9in /  1013.1hPa South 6.3mph /  10.1km/h 8.7mph /  14.0km/h 98% 0.01in /  0.3mm
11:45 42.1 °F /  5.6 °C 41.5 °F /  5.3 °C 29.9in /  1013.1hPa SSW 4mph /  6.4km/h 8.7mph /  14.0km/h 98% 0.01in /  0.3mm
11:50 42.3 °F /  5.7 °C 41.7 °F /  5.4 °C 29.9in /  1013.1hPa SE 3.1mph /  5.0km/h 8.7mph /  14.0km/h 98% 0.01in /  0.3mm
11:55 42.3 °F /  5.7 °C 41.7 °F /  5.4 °C 29.9in /  1013.1hPa South 5.4mph /  8.7km/h 10.5mph /  16.9km/h 98% 0in /  0.0mm
12:00 42.4 °F /  5.8 °C 41.9 °F /  5.5 °C 29.9in /  1013.1hPa South 3.4mph /  5.5km/h 10.5mph /  16.9km/h 98% 0in /  0.0mm
12:01 42.4 °F /  5.8 °C 41.9 °F /  5.5 °C 29.9in /  1013.1hPa SSW 3.1mph /  5.0km/h 10.5mph /  16.9km/h 98% 0in /  0.0mm
12:06 42.6 °F /  5.9 °C 42.1 °F /  5.6 °C 29.9in /  1013.1hPa SSE 4mph /  6.4km/h 6.3mph /  10.1km/h 98% 0in /  0.0mm
12:11 42.8 °F /  6.0 °C 42.3 °F /  5.7 °C 29.9in /  1013.1hPa South 3.8mph /  6.1km/h 7.2mph /  11.6km/h 98% 0in /  0.0mm
12:16 42.8 °F /  6.0 °C 42.3 °F /  5.7 °C 29.9in /  1013.1hPa South 3.1mph /  5.0km/h 7.2mph /  11.6km/h 98% 0in /  0.0mm
12:21 42.8 °F /  6.0 °C 42.3 °F /  5.7 °C 29.9in /  1013.1hPa SSE 3.8mph /  6.1km/h 10.7mph /  17.2km/h 98% 0in /  0.0mm
12:26 42.8 °F /  6.0 °C 42.3 °F /  5.7 °C 29.9in /  1013.1hPa SSW 4.9mph /  7.9km/h 10.7mph /  17.2km/h 98% 0in /  0.0mm
12:31 42.8 °F /  6.0 °C 42.3 °F /  5.7 °C 29.9in /  1013.1hPa SSW 5.4mph /  8.7km/h 9.6mph /  15.4km/h 98% 0in /  0.0mm
12:36 43 °F /  6.1 °C 42.4 °F /  5.8 °C 29.9in /  1013.1hPa South 5.4mph /  8.7km/h 5.4mph /  8.7km/h 98% 0in /  0.0mm
12:41 43 °F /  6.1 °C 42.4 °F /  5.8 °C 29.9in /  1013.1hPa South 5.6mph /  9.0km/h 6.5mph /  10.5km/h 98% 0in /  0.0mm
12:46 43 °F /  6.1 °C 42.4 °F /  5.8 °C 29.9in /  1013.1hPa South 4.3mph /  6.9km/h 6.5mph /  10.5km/h 98% 0in /  0.0mm
12:51 43.2 °F /  6.2 °C 42.6 °F /  5.9 °C 29.9in /  1013.1hPa South 3.8mph /  6.1km/h 6.5mph /  10.5km/h 98% 0in /  0.0mm
12:56 43.3 °F /  6.3 °C 42.8 °F /  6.0 °C 29.9in /  1012.1hPa South 4.3mph /  6.9km/h 6.5mph /  10.5km/h 98% 0in /  0.0mm
13:01 43.5 °F /  6.4 °C 43 °F /  6.1 °C 29.9in /  1012.1hPa South 3.1mph /  5.0km/h 6.5mph /  10.5km/h 98% 0in /  0.0mm
13:06 43.5 °F /  6.4 °C 43 °F /  6.1 °C 29.9in /  1012.1hPa South 3.6mph /  5.8km/h 5.8mph /  9.3km/h 98% 0in /  0.0mm
13:11 43.5 °F /  6.4 °C 43 °F /  6.1 °C 29.9in /  1012.1hPa South 5.4mph /  8.7km/h 5.4mph /  8.7km/h 98% 0in /  0.0mm
13:16 43.5 °F /  6.4 °C 43 °F /  6.1 °C 29.9in /  1012.1hPa SSE 3.4mph /  5.5km/h 5.8mph /  9.3km/h 98% 0in /  0.0mm
13:21 43.5 °F /  6.4 °C 43 °F /  6.1 °C 29.9in /  1012.1hPa SSE 4.3mph /  6.9km/h 6mph /  9.7km/h 98% 0in /  0.0mm
13:26 43.5 °F /  6.4 °C 43 °F /  6.1 °C 29.9in /  1013.1hPa SSW 6.3mph /  10.1km/h 10.3mph /  16.6km/h 98% 0in /  0.0mm
13:31 43.5 °F /  6.4 °C 43 °F /  6.1 °C 29.9in /  1013.1hPa SSW 2.9mph /  4.7km/h 10.3mph /  16.6km/h 98% 0in /  0.0mm
13:36 43.5 °F /  6.4 °C 43 °F /  6.1 °C 29.9in /  1013.1hPa South 2.9mph /  4.7km/h 6.5mph /  10.5km/h 98% 0in /  0.0mm
13:41 43.5 °F /  6.4 °C 43 °F /  6.1 °C 29.9in /  1012.1hPa SSE 3.6mph /  5.8km/h 6.3mph /  10.1km/h 98% 0in /  0.0mm
13:46 43.5 °F /  6.4 °C 43 °F /  6.1 °C 29.9in /  1012.1hPa South 2mph /  3.2km/h 6.3mph /  10.1km/h 98% 0in /  0.0mm
13:56 43.5 °F /  6.4 °C 43 °F /  6.1 °C 29.9in /  1013.1hPa SW 0.9mph /  1.4km/h 5.8mph /  9.3km/h 98% 0in /  0.0mm
14:01 43.5 °F /  6.4 °C 43.2 °F /  6.2 °C 29.9in /  1013.1hPa Calm   5.8mph /  9.3km/h 98% 0in /  0.0mm
14:06 43.5 °F /  6.4 °C 43.2 °F /  6.2 °C 29.9in /  1013.1hPa South 4.7mph /  7.6km/h 4.7mph /  7.6km/h 98% 0in /  0.0mm
14:11 43.9 °F /  6.6 °C 43.3 °F /  6.3 °C 29.9in /  1013.1hPa Calm   5.4mph /  8.7km/h 98% 0in /  0.0mm
14:16 44.1 °F /  6.7 °C 43.5 °F /  6.4 °C 29.9in /  1013.1hPa South 2.2mph /  3.5km/h 5.4mph /  8.7km/h 98% 0in /  0.0mm
14:21 44.1 °F /  6.7 °C 43.5 °F /  6.4 °C 29.9in /  1013.1hPa SSW 2.5mph /  4.0km/h 4mph /  6.4km/h 98% 0in /  0.0mm
14:26 44.1 °F /  6.7 °C 43.5 °F /  6.4 °C 29.9in /  1013.1hPa Calm   3.4mph /  5.5km/h 98% 0in /  0.0mm
14:31 44.2 °F /  6.8 °C 43.5 °F /  6.4 °C 29.9in /  1013.1hPa SSW 4mph /  6.4km/h 4mph /  6.4km/h 98% 0in /  0.0mm
14:36 44.2 °F /  6.8 °C 43.5 °F /  6.4 °C 29.9in /  1013.1hPa Calm   4mph /  6.4km/h 98% 0in /  0.0mm
14:41 44.2 °F /  6.8 °C 43.9 °F /  6.6 °C 29.9in /  1013.1hPa Calm   4mph /  6.4km/h 98% 0in /  0.0mm
14:46 44.4 °F /  6.9 °C 44.1 °F /  6.7 °C 29.9in /  1013.1hPa SSW 2.7mph /  4.3km/h 3.1mph /  5.0km/h 98% 0in /  0.0mm
14:51 44.8 °F /  7.1 °C 44.2 °F /  6.8 °C 29.9in /  1013.1hPa WSW 2.5mph /  4.0km/h 3.4mph /  5.5km/h 98% 0in /  0.0mm
14:56 44.8 °F /  7.1 °C 44.2 °F /  6.8 °C 29.9in /  1013.1hPa Calm   3.4mph /  5.5km/h 98% 0in /  0.0mm
15:01 45 °F /  7.2 °C 44.2 °F /  6.8 °C 29.9in /  1013.1hPa Calm   3.4mph /  5.5km/h 98% 0in /  0.0mm
15:06 45 °F /  7.2 °C 44.2 °F /  6.8 °C 29.9in /  1013.1hPa SSW 2.5mph /  4.0km/h 3.6mph /  5.8km/h 98% 0in /  0.0mm
15:11 45.1 °F /  7.3 °C 44.4 °F /  6.9 °C 29.9in /  1013.1hPa SW 3.4mph /  5.5km/h 4.3mph /  6.9km/h 98% 0in /  0.0mm
15:16 45.1 °F /  7.3 °C 44.4 °F /  6.9 °C 29.9in /  1013.1hPa Calm   4.3mph /  6.9km/h 98% 0in /  0.0mm
15:18 45.1 °F /  7.3 °C 44.4 °F /  6.9 °C 29.9in /  1013.1hPa Calm   4.3mph /  6.9km/h 98% 0in /  0.0mm
15:23 45.1 °F /  7.3 °C 44.8 °F /  7.1 °C 29.9in /  1013.1hPa Calm   1.1mph /  1.8km/h 98% 0in /  0.0mm
15:28 45.1 °F /  7.3 °C 44.8 °F /  7.1 °C 29.9in /  1013.1hPa SW 3.1mph /  5.0km/h 3.1mph /  5.0km/h 98% 0in /  0.0mm
15:33 45.1 °F /  7.3 °C 44.8 °F /  7.1 °C 29.9in /  1013.1hPa Calm   3.1mph /  5.0km/h 98% 0in /  0.0mm
15:38 45.1 °F /  7.3 °C 44.8 °F /  7.1 °C 29.9in /  1013.1hPa Calm   3.1mph /  5.0km/h 98% 0in /  0.0mm
15:43 45.1 °F /  7.3 °C 44.8 °F /  7.1 °C 29.9in /  1013.1hPa Calm   4.9mph /  7.9km/h 98% 0in /  0.0mm
15:48 45.1 °F /  7.3 °C 44.8 °F /  7.1 °C 29.9in /  1013.1hPa Calm   4.9mph /  7.9km/h 98% 0in /  0.0mm
15:53 45.1 °F /  7.3 °C 44.8 °F /  7.1 °C 29.9in /  1013.1hPa West 0.9mph /  1.4km/h 3.4mph /  5.5km/h 98% 0in /  0.0mm
15:58 45.1 °F /  7.3 °C 44.8 °F /  7.1 °C 29.9in /  1013.1hPa Calm   4.3mph /  6.9km/h 98% 0in /  0.0mm
16:03 45.1 °F /  7.3 °C 44.8 °F /  7.1 °C 29.9in /  1013.1hPa Calm   4.3mph /  6.9km/h 98% 0in /  0.0mm
16:08 45.3 °F /  7.4 °C 45 °F /  7.2 °C 29.9in /  1013.1hPa WNW 2.2mph /  3.5km/h 3.6mph /  5.8km/h 98% 0in /  0.0mm
16:13 45.3 °F /  7.4 °C 45 °F /  7.2 °C 29.9in /  1013.1hPa West 3.4mph /  5.5km/h 3.8mph /  6.1km/h 98% 0in /  0.0mm
16:18 45.3 °F /  7.4 °C 45 °F /  7.2 °C 29.9in /  1013.1hPa West 4mph /  6.4km/h 5.4mph /  8.7km/h 98% 0in /  0.0mm
16:23 45.3 °F /  7.4 °C 45 °F /  7.2 °C 29.9in /  1013.1hPa Calm   5.4mph /  8.7km/h 98% 0in /  0.0mm
16:28 45.3 °F /  7.4 °C 45 °F /  7.2 °C 29.9in /  1013.1hPa Calm   4.3mph /  6.9km/h 98% 0in /  0.0mm
16:33 45.3 °F /  7.4 °C 45 °F /  7.2 °C 29.9in /  1013.1hPa Calm   2.7mph /  4.3km/h 98% 0in /  0.0mm
16:38 45.3 °F /  7.4 °C 45 °F /  7.2 °C 29.9in /  1014.1hPa Calm   2.9mph /  4.7km/h 98% 0in /  0.0mm
16:43 45.3 °F /  7.4 °C 45 °F /  7.2 °C 29.9in /  1014.1hPa Calm   2.9mph /  4.7km/h 98% 0in /  0.0mm
16:48 45.3 °F /  7.4 °C 45 °F /  7.2 °C 29.9in /  1014.1hPa Calm     98% 0in /  0.0mm
16:53 45.3 °F /  7.4 °C 45 °F /  7.2 °C 29.9in /  1014.1hPa Calm     98% 0in /  0.0mm
16:58 45.3 °F /  7.4 °C 45 °F /  7.2 °C 29.9in /  1014.1hPa Calm     98% 0in /  0.0mm
17:03 45.3 °F /  7.4 °C 45 °F /  7.2 °C 29.9in /  1014.1hPa Calm     98% 0in /  0.0mm
17:08 45.3 °F /  7.4 °C 45 °F /  7.2 °C 29.9in /  1014.1hPa Calm     98% 0in /  0.0mm
17:13 45.3 °F /  7.4 °C 45 °F /  7.2 °C 29.9in /  1014.1hPa Calm     98% 0in /  0.0mm
17:18 45.3 °F /  7.4 °C 45 °F /  7.2 °C 29.9in /  1014.1hPa Calm     98% 0in /  0.0mm
17:23 45.1 °F /  7.3 °C 44.8 °F /  7.1 °C 29.9in /  1014.1hPa Calm     98% 0in /  0.0mm
17:28 45.1 °F /  7.3 °C 44.8 °F /  7.1 °C 29.9in /  1014.1hPa Calm     98% 0in /  0.0mm
17:33 45.1 °F /  7.3 °C 44.8 °F /  7.1 °C 29.9in /  1014.1hPa Calm     98% 0in /  0.0mm
17:38 45.1 °F /  7.3 °C 44.8 °F /  7.1 °C 29.9in /  1014.1hPa Calm     98% 0in /  0.0mm
17:43 45.1 °F /  7.3 °C 44.8 °F /  7.1 °C 29.9in /  1014.1hPa Calm     98% 0in /  0.0mm
17:48 45.1 °F /  7.3 °C 44.8 °F /  7.1 °C 29.9in /  1014.1hPa Calm     98% 0in /  0.0mm
17:53 45.1 °F /  7.3 °C 44.4 °F /  6.9 °C 29.9in /  1014.1hPa Calm     98% 0in /  0.0mm
17:58 45.1 °F /  7.3 °C 44.4 °F /  6.9 °C 29.9in /  1014.1hPa Calm     98% 0in /  0.0mm
18:03 45.1 °F /  7.3 °C 44.4 °F /  6.9 °C 29.9in /  1014.1hPa Calm     98% 0in /  0.0mm
18:08 45.1 °F /  7.3 °C 44.4 °F /  6.9 °C 29.9in /  1014.1hPa Calm     98% 0in /  0.0mm
18:13 45.1 °F /  7.3 °C 44.4 °F /  6.9 °C 29.9in /  1014.1hPa Calm     98% 0in /  0.0mm
18:18 45.1 °F /  7.3 °C 44.4 °F /  6.9 °C 29.9in /  1014.1hPa Calm     98% 0.01in /  0.3mm
18:23 45.1 °F /  7.3 °C 44.4 °F /  6.9 °C 30in /  1015.1hPa Calm   2mph /  3.2km/h 98% 0.01in /  0.3mm
18:28 45.1 °F /  7.3 °C 44.4 °F /  6.9 °C 30in /  1015.1hPa West 3.1mph /  5.0km/h 4.3mph /  6.9km/h 98% 0.01in /  0.3mm
18:33 45.1 °F /  7.3 °C 44.8 °F /  7.1 °C 30in /  1015.1hPa West 3.1mph /  5.0km/h 4.3mph /  6.9km/h 98% 0.01in /  0.3mm
18:38 45.1 °F /  7.3 °C 44.8 °F /  7.1 °C 30in /  1015.1hPa Calm   3.1mph /  5.0km/h 98% 0.01in /  0.3mm
18:43 45.1 °F /  7.3 °C 44.8 °F /  7.1 °C 30in /  1015.1hPa SW 1.3mph /  2.1km/h 5.6mph /  9.0km/h 98% 0.01in /  0.3mm
18:48 45.1 °F /  7.3 °C 44.8 °F /  7.1 °C 30in /  1015.1hPa WNW 3.4mph /  5.5km/h 5.6mph /  9.0km/h 98% 0.01in /  0.3mm
18:53 45.1 °F /  7.3 °C 44.8 °F /  7.1 °C 30in /  1015.1hPa NW 2.5mph /  4.0km/h 4.3mph /  6.9km/h 98% 0.01in /  0.3mm
18:58 45.1 °F /  7.3 °C 44.4 °F /  6.9 °C 30in /  1015.1hPa NNW 3.1mph /  5.0km/h 6mph /  9.7km/h 98% 0.01in /  0.3mm
19:03 45.1 °F /  7.3 °C 44.4 °F /  6.9 °C 30in /  1015.1hPa West 3.6mph /  5.8km/h 7.4mph /  11.9km/h 98% 0.01in /  0.3mm
19:08 45.1 °F /  7.3 °C 44.4 °F /  6.9 °C 30in /  1015.1hPa WNW 2.9mph /  4.7km/h 7.4mph /  11.9km/h 98% 0.01in /  0.3mm
19:13 45.1 °F /  7.3 °C 44.4 °F /  6.9 °C 30in /  1015.1hPa NW 1.6mph /  2.6km/h 7.2mph /  11.6km/h 98% 0.01in /  0.3mm
19:18 45.1 °F /  7.3 °C 44.4 °F /  6.9 °C 30in /  1015.1hPa WNW 1.1mph /  1.8km/h 5.8mph /  9.3km/h 98% 0in /  0.0mm
19:23 45.1 °F /  7.3 °C 44.4 °F /  6.9 °C 30in /  1015.1hPa WNW 4mph /  6.4km/h 4.3mph /  6.9km/h 98% 0in /  0.0mm
19:28 45 °F /  7.2 °C 44.2 °F /  6.8 °C 30in /  1015.1hPa North 0.9mph /  1.4km/h 5.4mph /  8.7km/h 98% 0in /  0.0mm
19:33 45 °F /  7.2 °C 44.2 °F /  6.8 °C 30in /  1015.1hPa West 2.9mph /  4.7km/h 6mph /  9.7km/h 98% 0in /  0.0mm
19:38 45.1 °F /  7.3 °C 44.4 °F /  6.9 °C 30in /  1015.1hPa WNW 6.3mph /  10.1km/h 7.8mph /  12.6km/h 98% 0in /  0.0mm
19:43 45.1 °F /  7.3 °C 44.4 °F /  6.9 °C 30in /  1015.1hPa West 3.6mph /  5.8km/h 7.8mph /  12.6km/h 98% 0in /  0.0mm
19:48 45.1 °F /  7.3 °C 44.4 °F /  6.9 °C 30in /  1015.1hPa WNW 2.9mph /  4.7km/h 8.5mph /  13.7km/h 98% 0in /  0.0mm
19:53 45 °F /  7.2 °C 44.2 °F /  6.8 °C 30in /  1015.1hPa SSW 8.5mph /  13.7km/h 9.6mph /  15.4km/h 98% 0in /  0.0mm
19:58 45 °F /  7.2 °C 44.2 °F /  6.8 °C 30in /  1015.1hPa West 4.3mph /  6.9km/h 9.6mph /  15.4km/h 98% 0in /  0.0mm
20:03 45 °F /  7.2 °C 44.2 °F /  6.8 °C 30in /  1015.1hPa WNW 3.8mph /  6.1km/h 8.7mph /  14.0km/h 98% 0in /  0.0mm
20:08 45 °F /  7.2 °C 44.2 °F /  6.8 °C 30in /  1015.1hPa WNW 6mph /  9.7km/h 7.6mph /  12.2km/h 98% 0in /  0.0mm
20:13 44.8 °F /  7.1 °C 44.2 °F /  6.8 °C 30in /  1015.1hPa NNW 3.4mph /  5.5km/h 7.6mph /  12.2km/h 98% 0in /  0.0mm
20:18 44.8 °F /  7.1 °C 44.2 °F /  6.8 °C 30in /  1015.1hPa Calm   6.5mph /  10.5km/h 98% 0in /  0.0mm
20:23 44.4 °F /  6.9 °C 44.1 °F /  6.7 °C 30in /  1015.1hPa WNW 2.7mph /  4.3km/h 6.5mph /  10.5km/h 98% 0in /  0.0mm
20:28 44.4 °F /  6.9 °C 44.1 °F /  6.7 °C 30in /  1015.1hPa WNW 2.7mph /  4.3km/h 6.3mph /  10.1km/h 98% 0in /  0.0mm
20:33 44.4 °F /  6.9 °C 44.1 °F /  6.7 °C 30in /  1015.1hPa West 3.4mph /  5.5km/h 6.3mph /  10.1km/h 98% 0in /  0.0mm
20:38 44.4 °F /  6.9 °C 44.1 °F /  6.7 °C 30in /  1015.1hPa NW 2mph /  3.2km/h 5.8mph /  9.3km/h 98% 0in /  0.0mm
20:43 44.2 °F /  6.8 °C 43.5 °F /  6.4 °C 30in /  1015.1hPa NW 4mph /  6.4km/h 5.8mph /  9.3km/h 97% 0in /  0.0mm
20:48 44.2 °F /  6.8 °C 43.5 °F /  6.4 °C 30in /  1015.1hPa NW 2.5mph /  4.0km/h 6.9mph /  11.1km/h 97% 0in /  0.0mm
20:53 44.2 °F /  6.8 °C 43.5 °F /  6.4 °C 29.9in /  1014.1hPa NNW 2.5mph /  4.0km/h 6.9mph /  11.1km/h 97% 0in /  0.0mm
20:58 44.2 °F /  6.8 °C 43.5 °F /  6.4 °C 29.9in /  1014.1hPa Calm   7.2mph /  11.6km/h 97% 0in /  0.0mm
21:03 44.2 °F /  6.8 °C 43.9 °F /  6.6 °C 29.9in /  1014.1hPa Calm   7.2mph /  11.6km/h 98% 0in /  0.0mm
21:08 44.2 °F /  6.8 °C 43.9 °F /  6.6 °C 30in /  1015.1hPa NNW 3.1mph /  5.0km/h 5.8mph /  9.3km/h 98% 0in /  0.0mm
21:13 44.4 °F /  6.9 °C 44.1 °F /  6.7 °C 30in /  1015.1hPa NNW 2.7mph /  4.3km/h 5.6mph /  9.0km/h 98% 0in /  0.0mm
21:18 44.4 °F /  6.9 °C 44.1 °F /  6.7 °C 30in /  1015.1hPa Calm   5.6mph /  9.0km/h 98% 0in /  0.0mm
21:23 44.4 °F /  6.9 °C 44.1 °F /  6.7 °C 29.9in /  1014.1hPa West 3.1mph /  5.0km/h 4.3mph /  6.9km/h 98% 0in /  0.0mm
21:28 44.4 °F /  6.9 °C 44.1 °F /  6.7 °C 29.9in /  1014.1hPa NW 3.4mph /  5.5km/h 5.4mph /  8.7km/h 98% 0in /  0.0mm
21:33 44.2 °F /  6.8 °C 43.9 °F /  6.6 °C 29.9in /  1014.1hPa North 2.7mph /  4.3km/h 5.4mph /  8.7km/h 98% 0in /  0.0mm
21:38 44.2 °F /  6.8 °C 43.9 °F /  6.6 °C 30in /  1015.1hPa WNW 4mph /  6.4km/h 6mph /  9.7km/h 98% 0in /  0.0mm
21:43 44.2 °F /  6.8 °C 43.9 °F /  6.6 °C 30in /  1015.1hPa NNW 3.1mph /  5.0km/h 6mph /  9.7km/h 98% 0in /  0.0mm
21:48 44.2 °F /  6.8 °C 43.9 °F /  6.6 °C 30in /  1015.1hPa NNW 4mph /  6.4km/h 5.8mph /  9.3km/h 98% 0in /  0.0mm
21:53 44.2 °F /  6.8 °C 43.5 °F /  6.4 °C 30in /  1015.1hPa WNW 2.5mph /  4.0km/h 6mph /  9.7km/h 98% 0in /  0.0mm
21:58 44.1 °F /  6.7 °C 43.5 °F /  6.4 °C 30in /  1015.1hPa NW 2mph /  3.2km/h 6mph /  9.7km/h 98% 0in /  0.0mm
22:03 44.1 °F /  6.7 °C 43.5 °F /  6.4 °C 30in /  1015.1hPa NNW 3.1mph /  5.0km/h 5.6mph /  9.0km/h 98% 0in /  0.0mm
22:08 44.1 °F /  6.7 °C 43.5 °F /  6.4 °C 30in /  1015.1hPa North 2.2mph /  3.5km/h 4.7mph /  7.6km/h 98% 0in /  0.0mm
22:13 43.9 °F /  6.6 °C 43.3 °F /  6.3 °C 30in /  1015.1hPa North 3.1mph /  5.0km/h 4mph /  6.4km/h 98% 0in /  0.0mm
22:18 43.9 °F /  6.6 °C 43.3 °F /  6.3 °C 30in /  1015.1hPa Calm   4mph /  6.4km/h 98% 0in /  0.0mm
22:23 43.5 °F /  6.4 °C 43.2 °F /  6.2 °C 30in /  1016.1hPa NW 2.7mph /  4.3km/h 3.4mph /  5.5km/h 98% 0in /  0.0mm
22:28 43.5 °F /  6.4 °C 43.2 °F /  6.2 °C 30in /  1016.1hPa WNW 4mph /  6.4km/h 5.8mph /  9.3km/h 98% 0in /  0.0mm
22:33 43.5 °F /  6.4 °C 43.2 °F /  6.2 °C 30in /  1016.1hPa WNW 1.6mph /  2.6km/h 6mph /  9.7km/h 98% 0in /  0.0mm
22:38 43.5 °F /  6.4 °C 43.2 °F /  6.2 °C 30in /  1016.1hPa North 3.1mph /  5.0km/h 6mph /  9.7km/h 98% 0in /  0.0mm
22:43 43.5 °F /  6.4 °C 43 °F /  6.1 °C 30in /  1016.1hPa Calm   6mph /  9.7km/h 98% 0in /  0.0mm
22:48 43.5 °F /  6.4 °C 43 °F /  6.1 °C 30in /  1016.1hPa Calm   6mph /  9.7km/h 98% 0in /  0.0mm
22:53 43.5 °F /  6.4 °C 43 °F /  6.1 °C 30in /  1015.1hPa North 2.2mph /  3.5km/h 4.7mph /  7.6km/h 98% 0in /  0.0mm
22:54 43.5 °F /  6.4 °C 43 °F /  6.1 °C 30in /  1015.1hPa WNW 2.9mph /  4.7km/h 4.7mph /  7.6km/h 98% 0in /  0.0mm
22:59 43.5 °F /  6.4 °C 43 °F /  6.1 °C 30in /  1015.1hPa Calm   7.6mph /  12.2km/h 98% 0in /  0.0mm
23:04 43.5 °F /  6.4 °C 43 °F /  6.1 °C 30in /  1015.1hPa Calm   7.6mph /  12.2km/h 98% 0in /  0.0mm
23:09 43.5 °F /  6.4 °C 43 °F /  6.1 °C 30in /  1016.1hPa WNW 1.6mph /  2.6km/h 7.4mph /  11.9km/h 98% 0in /  0.0mm
23:14 43.5 °F /  6.4 °C 43 °F /  6.1 °C 30in /  1016.1hPa NNW 3.1mph /  5.0km/h 5.6mph /  9.0km/h 98% 0in /  0.0mm
23:19 43.3 °F /  6.3 °C 42.8 °F /  6.0 °C 30in /  1016.1hPa NNW 2.7mph /  4.3km/h 4.5mph /  7.2km/h 98% 0in /  0.0mm
23:24 43.3 °F /  6.3 °C 42.8 °F /  6.0 °C 30in /  1016.1hPa North 2mph /  3.2km/h 4.3mph /  6.9km/h 98% 0in /  0.0mm
23:29 43.3 °F /  6.3 °C 42.8 °F /  6.0 °C 30in /  1016.1hPa North 3.1mph /  5.0km/h 5.4mph /  8.7km/h 98% 0in /  0.0mm
23:34 43.3 °F /  6.3 °C 42.8 °F /  6.0 °C 30in /  1016.1hPa NNW 1.6mph /  2.6km/h 5.4mph /  8.7km/h 98% 0in /  0.0mm
23:39 43.3 °F /  6.3 °C 42.8 °F /  6.0 °C 30in /  1016.1hPa NNE 2.5mph /  4.0km/h 3.4mph /  5.5km/h 98% 0in /  0.0mm
23:44 43.3 °F /  6.3 °C 42.8 °F /  6.0 °C 30in /  1016.1hPa North 3.8mph /  6.1km/h 4.7mph /  7.6km/h 98% 0in /  0.0mm
23:47 43.2 °F /  6.2 °C 42.6 °F /  5.9 °C 30in /  1016.1hPa Calm   4.7mph /  7.6km/h 98% 0.01in /  0.3mm
23:52 43.2 °F /  6.2 °C 42.6 °F /  5.9 °C 30in /  1016.8hPa Calm   6mph /  9.7km/h 98% 0.01in /  0.3mm
23:55 43.2 °F /  6.2 °C 42.6 °F /  5.9 °C 30in /  1016.8hPa Calm   6mph /  9.7km/h 98% 0.01in /  0.3mm
Données Historique de Météo Turbie

Mise a jour : 20/05/2018 19:38:13
Généré par Cumulus 1.9.4 (1099)